createdAt,value
2019-05-10T00:00:36.954Z,98528.61
2019-05-10T00:03:23.452Z,98527.80
2019-05-10T00:06:09.935Z,98533.06
2019-05-10T00:08:47.079Z,98530.96
2019-05-10T00:11:28.650Z,98538.05
2019-05-10T00:14:15.417Z,98542.06
2019-05-10T00:16:45.209Z,98542.09
2019-05-10T00:19:13.605Z,98546.03
2019-05-10T00:21:42.032Z,98550.84
2019-05-10T00:24:10.428Z,98542.12
2019-05-10T00:26:39.246Z,98542.12
2019-05-10T00:29:07.904Z,98547.34
2019-05-10T00:31:36.363Z,98549.98
2019-05-10T00:34:04.921Z,98548.23
2019-05-10T00:36:33.341Z,98550.44
2019-05-10T00:39:01.774Z,98547.84
2019-05-10T00:41:30.154Z,98552.25
2019-05-10T00:43:58.572Z,98547.89
2019-05-10T00:46:26.959Z,98546.19
2019-05-10T00:48:55.660Z,98548.88
2019-05-10T00:51:24.153Z,98551.52
2019-05-10T00:53:52.545Z,98550.26
2019-05-10T00:56:20.935Z,98559.04
2019-05-10T00:58:49.350Z,98556.89
2019-05-10T01:01:18.801Z,98554.73
2019-05-10T01:03:47.217Z,98557.36
2019-05-10T01:06:15.631Z,98557.39
2019-05-10T01:08:44.342Z,98558.28
2019-05-10T01:11:13.007Z,98565.27
2019-05-10T01:13:41.444Z,98560.45
2019-05-10T01:16:09.901Z,98564.41
2019-05-10T01:18:38.293Z,98570.97
2019-05-10T01:21:06.706Z,98574.02
2019-05-10T01:23:35.091Z,98572.28
2019-05-10T01:26:03.478Z,98573.16
2019-05-10T01:28:31.900Z,98567.48
2019-05-10T01:31:00.283Z,98577.13
2019-05-10T01:33:28.675Z,98581.91
2019-05-10T01:35:57.249Z,98582.35
2019-05-10T01:38:25.641Z,98592.86
2019-05-10T01:40:54.026Z,98586.72
2019-05-10T01:43:22.440Z,98598.08
2019-05-10T01:45:50.839Z,98596.80
2019-05-10T01:48:19.226Z,98594.17
2019-05-10T01:50:47.647Z,98601.14
2019-05-10T01:53:16.038Z,98601.14
2019-05-10T01:55:52.147Z,98596.36
2019-05-10T01:58:14.852Z,98602.46
2019-05-10T02:00:43.235Z,98606.83
2019-05-10T02:03:11.624Z,98607.28
2019-05-10T02:05:40.044Z,98606.39
2019-05-10T02:08:08.434Z,98609.44
2019-05-10T02:10:36.819Z,98609.00
2019-05-10T02:13:05.227Z,98607.70
2019-05-10T02:15:33.913Z,98614.25
2019-05-10T02:18:02.302Z,98624.73
2019-05-10T02:20:30.724Z,98620.35
2019-05-10T02:22:59.143Z,98624.73
2019-05-10T02:25:27.503Z,98622.55
2019-05-10T02:27:55.919Z,98620.34
2019-05-10T02:30:24.308Z,98617.27
2019-05-10T02:32:52.693Z,98627.34
2019-05-10T02:35:21.097Z,98629.08
2019-05-10T02:37:49.487Z,98631.72
2019-05-10T02:40:18.237Z,98629.95
2019-05-10T02:42:46.679Z,98634.34
2019-05-10T02:45:15.500Z,98629.52
2019-05-10T02:47:43.886Z,98631.69
2019-05-10T02:50:12.832Z,98634.73
2019-05-10T02:52:41.217Z,98629.45
2019-05-10T02:55:10.982Z,98633.78
2019-05-10T02:57:39.774Z,98636.35
2019-05-10T03:00:09.439Z,98631.48
2019-05-10T03:02:38.568Z,98638.81
2019-05-10T03:05:07.626Z,98644.42
2019-05-10T03:07:38.223Z,98648.72
2019-05-10T03:10:09.317Z,98642.94
2019-05-10T03:12:40.524Z,98651.59
2019-05-10T03:15:11.481Z,98657.24
2019-05-10T03:17:41.481Z,98658.98
2019-05-10T03:20:10.631Z,98661.59
2019-05-10T03:22:43.628Z,98656.30
2019-05-10T03:25:13.816Z,98661.48
2019-05-10T03:27:42.528Z,98661.05
2019-05-10T03:30:11.663Z,98665.87
2019-05-10T03:32:40.050Z,98661.05
2019-05-10T03:35:08.996Z,98665.82
2019-05-10T03:37:37.382Z,98669.71
2019-05-10T03:40:10.057Z,98665.73
2019-05-10T03:42:38.460Z,98665.73
2019-05-10T03:45:07.800Z,98667.45
2019-05-10T03:47:36.209Z,98668.28
2019-05-10T03:50:06.641Z,98672.16
2019-05-10T03:52:35.023Z,98676.05
2019-05-10T03:55:03.699Z,98676.87
2019-05-10T03:57:32.081Z,98681.64
2019-05-10T04:00:00.486Z,98680.29
2019-05-10T04:02:28.950Z,98678.92
2019-05-10T04:04:57.340Z,98686.31
2019-05-10T04:07:25.738Z,98688.02
2019-05-10T04:09:54.148Z,98688.02
2019-05-10T04:12:22.532Z,98689.80
2019-05-10T04:14:50.923Z,98692.41
2019-05-10T04:17:19.329Z,98701.95
2019-05-10T04:19:47.717Z,98704.91
2019-05-10T04:22:16.144Z,98712.27
2019-05-10T04:24:44.530Z,98706.91
2019-05-10T04:27:30.632Z,98709.48
2019-05-10T04:29:43.138Z,98720.30
2019-05-10T04:32:11.522Z,98720.25
2019-05-10T04:34:39.913Z,98726.73
2019-05-10T04:37:08.328Z,98727.59
2019-05-10T04:39:37.020Z,98728.43
2019-05-10T04:42:05.426Z,98727.66
2019-05-10T04:44:33.838Z,98725.98
2019-05-10T04:47:02.230Z,98731.58
2019-05-10T04:49:30.619Z,98725.87
2019-05-10T04:51:59.155Z,98735.05
2019-05-10T04:54:27.538Z,98734.77
2019-05-10T04:56:59.975Z,98736.70
2019-05-10T04:59:26.055Z,98737.31
2019-05-10T05:01:54.696Z,98735.36
2019-05-10T05:04:23.086Z,98734.55
2019-05-10T05:06:51.490Z,98741.23
2019-05-10T05:09:20.020Z,98747.05
2019-05-10T05:11:48.418Z,98744.56
2019-05-10T05:14:16.827Z,98745.98
2019-05-10T05:16:45.228Z,98758.27
2019-05-10T05:19:13.937Z,98756.18
2019-05-10T05:21:42.350Z,98765.06
2019-05-10T05:24:11.031Z,98756.47
2019-05-10T05:26:40.836Z,98764.39
2019-05-10T05:29:09.244Z,98759.23
2019-05-10T05:31:37.639Z,98759.74
2019-05-10T05:34:06.436Z,98767.72
2019-05-10T05:36:34.823Z,98770.41
2019-05-10T05:39:04.692Z,98779.16
2019-05-10T05:41:47.609Z,98776.03
2019-05-10T05:44:03.559Z,98779.88
2019-05-10T05:46:31.956Z,98780.15
2019-05-10T05:49:00.348Z,98783.16
2019-05-10T05:51:28.812Z,98782.55
2019-05-10T05:53:57.175Z,98781.52
2019-05-10T05:56:25.746Z,98776.59
2019-05-10T05:58:54.166Z,98789.26
2019-05-10T06:01:26.196Z,98791.23
2019-05-10T06:03:52.683Z,98786.17
2019-05-10T06:06:23.205Z,98787.70
2019-05-10T06:08:54.559Z,98789.28
2019-05-10T06:11:21.334Z,98796.36
2019-05-10T06:13:49.745Z,98798.48
2019-05-10T06:16:18.142Z,98808.58
2019-05-10T06:18:47.283Z,98806.05
2019-05-10T06:21:17.756Z,98811.41
2019-05-10T06:23:46.805Z,98813.82
2019-05-10T06:26:26.243Z,98815.14
2019-05-10T06:28:58.272Z,98813.55
2019-05-10T06:31:15.472Z,98813.06
2019-05-10T06:33:44.992Z,98817.22
2019-05-10T06:36:14.021Z,98824.53
2019-05-10T06:38:42.487Z,98822.00
2019-05-10T06:41:16.716Z,98823.72
2019-05-10T06:43:45.696Z,98830.48
2019-05-10T06:46:11.147Z,98833.56
2019-05-10T06:48:39.536Z,98832.12
2019-05-10T06:51:09.707Z,98833.59
2019-05-10T06:53:41.577Z,98834.89
2019-05-10T06:56:08.539Z,98838.73
2019-05-10T06:58:38.501Z,98838.00
2019-05-10T07:01:06.929Z,98846.08
2019-05-10T07:03:36.121Z,98849.38
2019-05-10T07:06:04.533Z,98846.34
2019-05-10T07:08:43.599Z,98843.25
2019-05-10T07:11:03.045Z,98849.61
2019-05-10T07:13:31.621Z,98853.75
2019-05-10T07:16:00.015Z,98852.19
2019-05-10T07:18:28.405Z,98861.62
2019-05-10T07:21:00.943Z,98861.98
2019-05-10T07:23:29.957Z,98853.60
2019-05-10T07:25:57.072Z,98859.28
2019-05-10T07:28:25.504Z,98853.30
2019-05-10T07:30:54.128Z,98854.29
2019-05-10T07:33:22.522Z,98848.82
2019-05-10T07:35:51.006Z,98854.44
2019-05-10T07:38:27.853Z,98859.12
2019-05-10T07:40:49.456Z,98858.35
2019-05-10T07:43:25.796Z,98857.08
2019-05-10T07:45:48.139Z,98856.80
2019-05-10T07:48:16.882Z,98861.53
2019-05-10T07:50:49.177Z,98854.97
2019-05-10T07:53:16.193Z,98857.94
2019-05-10T07:55:45.898Z,98857.41
2019-05-10T07:58:14.312Z,98863.36
2019-05-10T08:00:44.269Z,98860.20
2019-05-10T08:03:16.761Z,98861.12
2019-05-10T08:05:46.410Z,98865.40
2019-05-10T08:08:13.421Z,98865.63
2019-05-10T08:10:42.042Z,98866.11
2019-05-10T08:13:10.457Z,98870.38
2019-05-10T08:15:38.846Z,98877.46
2019-05-10T08:18:09.649Z,98869.84
2019-05-10T08:20:49.198Z,98875.98
2019-05-10T08:23:07.505Z,98877.02
2019-05-10T08:25:40.980Z,98874.05
2019-05-10T08:28:06.060Z,98884.25
2019-05-10T08:30:42.582Z,98890.00
2019-05-10T08:33:09.971Z,98889.25
2019-05-10T08:35:41.162Z,98892.89
2019-05-10T08:38:08.834Z,98892.48
2019-05-10T08:40:38.166Z,98898.87
2019-05-10T08:43:09.729Z,98892.21
2019-05-10T08:45:38.795Z,98899.05
2019-05-10T08:48:07.326Z,98892.59
2019-05-10T08:50:49.670Z,98895.17
2019-05-10T08:53:11.172Z,98899.81
2019-05-10T08:55:35.974Z,98894.38
2019-05-10T08:58:04.469Z,98895.45
2019-05-10T09:00:45.178Z,98904.39
2019-05-10T09:03:09.575Z,98900.91
2019-05-10T09:05:34.056Z,98903.25
2019-05-10T09:08:05.671Z,98908.56
2019-05-10T09:10:33.035Z,98899.05
2019-05-10T09:13:03.297Z,98913.14
2019-05-10T09:15:33.131Z,98912.56
2019-05-10T09:18:04.454Z,98904.15
2019-05-10T09:20:32.076Z,98909.95
2019-05-10T09:23:02.380Z,98913.63
2019-05-10T09:25:31.617Z,98910.53
2019-05-10T09:28:10.621Z,98921.70
2019-05-10T09:30:35.445Z,98919.48
2019-05-10T09:33:08.591Z,98915.00
2019-05-10T09:35:38.916Z,98920.27
2019-05-10T09:38:04.796Z,98920.09
2019-05-10T09:40:33.259Z,98923.56
2019-05-10T09:43:07.366Z,98923.67
2019-05-10T09:45:32.401Z,98925.81
2019-05-10T09:48:02.484Z,98925.48
2019-05-10T09:50:41.445Z,98929.48
2019-05-10T09:53:01.173Z,98934.22
2019-05-10T09:55:29.562Z,98938.09
2019-05-10T09:57:58.420Z,98941.89
2019-05-10T10:00:34.265Z,98946.78
2019-05-10T10:03:03.226Z,98946.90
2019-05-10T10:05:31.620Z,98945.98
2019-05-10T10:08:03.681Z,98955.75
2019-05-10T10:10:32.535Z,98952.30
2019-05-10T10:13:08.451Z,98952.38
2019-05-10T10:15:34.231Z,98946.34
2019-05-10T10:18:00.782Z,98949.27
2019-05-10T10:20:30.013Z,98953.45
2019-05-10T10:22:58.846Z,98958.25
2019-05-10T10:25:29.958Z,98953.23
2019-05-10T10:27:57.514Z,98949.14
2019-05-10T10:30:27.252Z,98948.13
2019-05-10T10:32:58.086Z,98950.57
2019-05-10T10:35:29.423Z,98949.63
2019-05-10T10:37:57.373Z,98949.26
2019-05-10T10:40:27.919Z,98941.88
2019-05-10T10:42:57.740Z,98938.28
2019-05-10T10:45:27.708Z,98941.72
2019-05-10T10:47:57.324Z,98940.64
2019-05-10T10:50:27.508Z,98926.61
2019-05-10T10:52:57.499Z,98930.50
2019-05-10T10:55:32.444Z,98926.22
2019-05-10T10:57:57.699Z,98926.40
2019-05-10T11:00:34.400Z,98915.48
2019-05-10T11:03:04.908Z,98927.61
2019-05-10T11:05:33.360Z,98921.97
2019-05-10T11:08:01.784Z,98920.06
2019-05-10T11:10:31.616Z,98907.90
2019-05-10T11:13:02.364Z,98905.35
2019-05-10T11:15:35.878Z,98907.08
2019-05-10T11:18:00.694Z,98903.59
2019-05-10T11:20:31.480Z,98910.39
2019-05-10T11:22:59.219Z,98908.64
2019-05-10T11:25:27.609Z,98907.25
2019-05-10T11:27:58.756Z,98903.08
2019-05-10T11:30:26.142Z,98907.42
2019-05-10T11:32:54.527Z,98892.58
2019-05-10T11:35:28.477Z,98898.19
2019-05-10T11:37:53.330Z,98903.64
2019-05-10T11:40:30.288Z,98903.13
2019-05-10T11:42:51.912Z,98900.53
2019-05-10T11:45:26.117Z,98895.86
2019-05-10T11:47:54.418Z,98893.73
2019-05-10T11:50:31.552Z,98900.98
2019-05-10T11:52:51.880Z,98901.14
2019-05-10T11:55:21.607Z,98906.93
2019-05-10T11:58:01.533Z,98898.67
2019-05-10T12:00:29.249Z,98904.85
2019-05-10T12:03:11.307Z,98899.20
2019-05-10T12:05:26.331Z,98897.59
2019-05-10T12:07:54.147Z,98898.53
2019-05-10T12:10:25.570Z,98901.15
2019-05-10T12:15:25.358Z,98903.86
2019-05-10T12:17:58.628Z,98893.28
2019-05-10T12:20:29.468Z,98898.66
2019-05-10T12:22:52.296Z,98893.95
2019-05-10T12:26:31.162Z,98899.42
2019-05-10T12:26:50.411Z,98894.76
2019-05-10T12:27:52.415Z,98899.23
2019-05-10T12:30:21.754Z,98892.94
2019-05-10T12:32:56.001Z,98897.63
2019-05-10T12:35:21.415Z,98897.30
2019-05-10T12:37:54.014Z,98900.41
2019-05-10T12:40:23.784Z,98902.72
2019-05-10T12:42:50.619Z,98894.69
2019-05-10T12:45:22.857Z,98894.20
2019-05-10T12:47:51.850Z,98892.04
2019-05-10T12:50:22.313Z,98890.70
2019-05-10T12:53:03.134Z,98892.91
2019-05-10T12:55:20.996Z,98895.16
2019-05-10T12:57:49.386Z,98892.65
2019-05-10T13:00:17.946Z,98897.16
2019-05-10T13:02:51.443Z,98897.16
2019-05-10T13:05:16.517Z,98894.25
2019-05-10T13:07:44.959Z,98899.07
2019-05-10T13:10:13.968Z,98894.02
2019-05-10T13:12:46.868Z,98896.61
2019-05-10T13:15:14.902Z,98899.89
2019-05-10T13:17:50.236Z,98897.64
2019-05-10T13:20:13.946Z,98900.77
2019-05-10T13:22:42.356Z,98900.05
2019-05-10T13:25:11.116Z,98897.77
2019-05-10T13:27:39.545Z,98901.91
2019-05-10T13:30:10.636Z,98905.77
2019-05-10T13:32:39.033Z,98899.77
2019-05-10T13:35:08.265Z,98903.24
2019-05-10T13:37:36.683Z,98899.95
2019-05-10T13:40:08.082Z,98901.39
2019-05-10T13:42:43.387Z,98901.52
2019-05-10T13:45:07.395Z,98917.53
2019-05-10T13:47:35.788Z,98910.17
2019-05-10T13:50:06.359Z,98910.33
2019-05-10T13:52:40.701Z,98905.66
2019-05-10T13:55:06.336Z,98906.22
2019-05-10T13:57:34.725Z,98899.06
2019-05-10T14:00:05.050Z,98899.19
2019-05-10T14:02:34.877Z,98904.84
2019-05-10T14:05:04.158Z,98904.25
2019-05-10T14:07:33.043Z,98898.45
2019-05-10T14:10:01.467Z,98901.50
2019-05-10T14:12:29.829Z,98904.70
2019-05-10T14:15:02.521Z,98901.58
2019-05-10T14:17:28.441Z,98894.50
2019-05-10T14:19:57.164Z,98885.16
2019-05-10T14:22:28.365Z,98899.11
2019-05-10T14:24:59.161Z,98899.48
2019-05-10T14:27:30.048Z,98903.47
2019-05-10T14:29:56.375Z,98899.07
2019-05-10T14:32:24.776Z,98900.70
2019-05-10T14:34:53.169Z,98910.83
2019-05-10T14:37:21.745Z,98901.95
2019-05-10T14:39:50.305Z,98906.56
2019-05-10T14:42:23.986Z,98912.58
2019-05-10T14:44:49.406Z,98902.84
2019-05-10T14:47:17.792Z,98903.37
2019-05-10T14:49:47.210Z,98903.98
2019-05-10T14:52:16.375Z,98908.95
2019-05-10T14:54:49.770Z,98906.44
2019-05-10T14:57:14.866Z,98907.62
2019-05-10T14:59:43.272Z,98904.77
2019-05-10T15:02:16.796Z,98913.59
2019-05-10T15:04:44.996Z,98910.31
2019-05-10T15:07:14.458Z,98915.92
2019-05-10T15:09:42.109Z,98914.84
2019-05-10T15:12:16.311Z,98914.16
2019-05-10T15:14:40.650Z,98900.73
2019-05-10T15:17:09.306Z,98905.27
2019-05-10T15:19:37.701Z,98904.84
2019-05-10T15:22:06.147Z,98904.00
2019-05-10T15:24:34.533Z,98908.72
2019-05-10T15:27:02.930Z,98911.39
2019-05-10T15:29:31.360Z,98911.69
2019-05-10T15:31:59.837Z,98904.33
2019-05-10T15:34:28.232Z,98894.97
2019-05-10T15:36:56.645Z,98899.66
2019-05-10T15:39:29.015Z,98906.70
2019-05-10T15:41:59.184Z,98901.91
2019-05-10T15:44:31.455Z,98895.34
2019-05-10T15:46:55.415Z,98885.28
2019-05-10T15:49:24.617Z,98883.33
2019-05-10T15:51:55.314Z,98872.97
2019-05-10T15:54:23.226Z,98869.28
2019-05-10T15:56:55.232Z,98859.50
2019-05-10T15:59:21.849Z,98851.75
2019-05-10T16:01:50.219Z,98844.75
2019-05-10T16:04:18.609Z,98845.92
2019-05-10T16:06:47.032Z,98853.00
2019-05-10T16:09:18.906Z,98867.76
2019-05-10T16:11:45.809Z,98871.05
2019-05-10T16:14:14.226Z,98881.20
2019-05-10T16:16:42.626Z,98881.59
2019-05-10T16:19:12.952Z,98889.02
2019-05-10T16:21:41.232Z,98887.87
2019-05-10T16:24:09.622Z,98886.15
2019-05-10T16:26:38.012Z,98893.16
2019-05-10T16:29:06.444Z,98890.47
2019-05-10T16:31:34.836Z,98890.47
2019-05-10T16:34:03.232Z,98885.53
2019-05-10T16:36:31.743Z,98883.87
2019-05-10T16:39:01.805Z,98872.10
2019-05-10T16:41:30.742Z,98863.51
2019-05-10T16:44:00.182Z,98862.73
2019-05-10T16:46:28.735Z,98873.16
2019-05-10T16:48:57.132Z,98867.57
2019-05-10T16:51:25.538Z,98878.81
2019-05-10T16:53:53.930Z,98866.08
2019-05-10T16:56:22.319Z,98871.30
2019-05-10T16:58:53.195Z,98862.19
2019-05-10T17:01:25.132Z,98854.57
2019-05-10T17:03:59.146Z,98866.34
2019-05-10T17:06:21.138Z,98862.00
2019-05-10T17:08:49.533Z,98853.44
2019-05-10T17:11:17.945Z,98853.38
2019-05-10T17:13:46.346Z,98854.23
2019-05-10T17:16:17.200Z,98856.95
2019-05-10T17:18:50.059Z,98849.21
2019-05-10T17:21:14.996Z,98859.52
2019-05-10T17:23:46.955Z,98855.58
2019-05-10T17:26:13.516Z,98855.58
2019-05-10T17:28:41.934Z,98866.98
2019-05-10T17:31:10.331Z,98881.53
2019-05-10T17:33:42.655Z,98867.63
2019-05-10T17:36:09.127Z,98863.38
2019-05-10T17:38:37.702Z,98867.86
2019-05-10T17:41:06.090Z,98881.17
2019-05-10T17:43:34.510Z,98882.50
2019-05-10T17:46:02.908Z,98875.02
2019-05-10T17:48:31.302Z,98877.12
2019-05-10T17:50:59.714Z,98881.52
2019-05-10T17:53:28.111Z,98879.20
2019-05-10T17:56:02.196Z,98873.30
2019-05-10T17:58:27.929Z,98872.70
2019-05-10T18:00:56.749Z,98870.09
2019-05-10T18:03:25.139Z,98856.29
2019-05-10T18:05:53.741Z,98852.78
2019-05-10T18:08:22.141Z,98851.15
2019-05-10T18:10:50.551Z,98858.36
2019-05-10T18:13:18.946Z,98856.33
2019-05-10T18:15:47.346Z,98851.89
2019-05-10T18:18:16.719Z,98857.20
2019-05-10T18:20:45.141Z,98865.39
2019-05-10T18:23:20.174Z,98864.90
2019-05-10T18:25:43.648Z,98872.58
2019-05-10T18:28:12.070Z,98870.75
2019-05-10T18:30:40.473Z,98875.08
2019-05-10T18:33:12.171Z,98880.41
2019-05-10T18:35:40.179Z,98879.48
2019-05-10T18:38:08.516Z,98876.75
2019-05-10T18:40:36.908Z,98882.92
2019-05-10T18:43:05.883Z,98886.48
2019-05-10T18:45:34.359Z,98885.30
2019-05-10T18:48:02.773Z,98890.59
2019-05-10T18:50:31.263Z,98904.19
2019-05-10T18:52:59.659Z,98899.72
2019-05-10T18:55:28.056Z,98905.89
2019-05-10T18:57:56.738Z,98899.59
2019-05-10T19:00:25.500Z,98899.00
2019-05-10T19:02:55.618Z,98897.08
2019-05-10T19:05:31.675Z,98890.25
2019-05-10T19:08:03.284Z,98882.06
2019-05-10T19:10:24.329Z,98881.80
2019-05-10T19:13:00.297Z,98892.58
2019-05-10T19:15:23.193Z,98900.97
2019-05-10T19:17:51.576Z,98899.61
2019-05-10T19:20:20.070Z,98911.08
2019-05-10T19:22:48.462Z,98910.23
2019-05-10T19:25:16.859Z,98911.62
2019-05-10T19:27:50.612Z,98913.66
2019-05-10T19:30:20.198Z,98917.16
2019-05-10T19:32:51.276Z,98915.92
2019-05-10T19:35:16.417Z,98917.78
2019-05-10T19:37:44.812Z,98923.08
2019-05-10T19:40:13.373Z,98930.44
2019-05-10T19:42:43.123Z,98931.61
2019-05-10T19:45:18.685Z,98938.03
2019-05-10T19:47:42.658Z,98941.09
2019-05-10T19:50:11.412Z,98937.70
2019-05-10T19:52:39.808Z,98940.08
2019-05-10T19:55:13.172Z,98942.97
2019-05-10T19:57:38.418Z,98945.41
2019-05-10T20:00:11.280Z,98945.15
2019-05-10T20:02:39.687Z,98944.40
2019-05-10T20:05:08.367Z,98944.50
2019-05-10T20:07:45.399Z,98951.95
2019-05-10T20:10:08.176Z,98949.68
2019-05-10T20:12:36.831Z,98943.59
2019-05-10T20:15:09.049Z,98944.65
2019-05-10T20:17:37.639Z,98939.16
2019-05-10T20:20:07.785Z,98930.58
2019-05-10T20:22:36.570Z,98932.48
2019-05-10T20:25:06.695Z,98934.25
2019-05-10T20:27:35.110Z,98927.66
2019-05-10T20:30:04.450Z,98920.69
2019-05-10T20:32:32.863Z,98916.38
2019-05-10T20:35:01.562Z,98905.09
2019-05-10T20:37:29.938Z,98900.77
2019-05-10T20:39:58.348Z,98899.08
2019-05-10T20:42:26.786Z,98897.77
2019-05-10T20:45:06.751Z,98894.63
2019-05-10T20:47:25.293Z,98897.72
2019-05-10T20:49:53.732Z,98905.15
2019-05-10T20:52:22.150Z,98905.52
2019-05-10T20:54:50.536Z,98905.96
2019-05-10T20:57:18.950Z,98877.45
2019-05-10T20:59:47.343Z,98865.63
2019-05-10T21:02:15.736Z,98854.77
2019-05-10T21:04:44.188Z,98879.81
2019-05-10T21:10:08.538Z,98892.88
2019-05-10T21:12:36.925Z,98892.30
2019-05-10T21:15:08.922Z,98877.31
2019-05-10T21:17:37.326Z,98868.23
2019-05-10T21:20:07.249Z,98885.95
2019-05-10T21:22:35.637Z,98896.12
2019-05-10T21:25:06.262Z,98907.05
2019-05-10T21:27:34.651Z,98904.25
2019-05-10T21:30:04.346Z,98890.63
2019-05-10T21:32:32.859Z,98885.00
2019-05-10T21:35:01.248Z,98879.44
2019-05-10T21:37:29.639Z,98869.03
2019-05-10T21:39:58.053Z,98864.33
2019-05-10T21:42:26.443Z,98869.23
2019-05-10T21:44:54.836Z,98865.27
2019-05-10T21:47:23.250Z,98866.61
2019-05-10T21:49:52.037Z,98854.79
2019-05-10T21:52:20.436Z,98848.23
2019-05-10T21:54:48.865Z,98839.05
2019-05-10T21:57:17.254Z,98832.94
2019-05-10T21:59:45.650Z,98834.27
2019-05-10T22:02:14.132Z,98836.89
2019-05-10T22:04:42.867Z,98831.62
2019-05-10T22:07:11.257Z,98823.73
2019-05-10T22:09:39.679Z,98816.27
2019-05-10T22:12:08.404Z,98800.50
2019-05-10T22:14:36.793Z,98792.62
2019-05-10T22:17:05.776Z,98783.02
2019-05-10T22:19:34.161Z,98768.15
2019-05-10T22:22:02.587Z,98766.92
2019-05-10T22:24:31.054Z,98763.92
2019-05-10T22:26:59.700Z,98749.04
2019-05-10T22:29:28.396Z,98749.04
2019-05-10T22:31:56.813Z,98746.42
2019-05-10T22:34:25.268Z,98756.97
2019-05-10T22:36:53.674Z,98767.52
2019-05-10T22:39:22.345Z,98769.30
2019-05-10T22:41:52.994Z,98772.83
2019-05-10T22:44:20.846Z,98790.34
2019-05-10T22:46:49.261Z,98792.94
2019-05-10T22:49:17.653Z,98783.72
2019-05-10T22:51:46.048Z,98775.39
2019-05-10T22:54:14.473Z,98776.30
2019-05-10T22:56:42.863Z,98771.52
2019-05-10T22:59:14.096Z,98776.80
2019-05-10T23:01:42.667Z,98771.12
2019-05-10T23:04:11.069Z,98783.82
2019-05-10T23:06:39.453Z,98789.50
2019-05-10T23:09:23.448Z,98786.83
2019-05-10T23:11:38.836Z,98779.81
2019-05-10T23:14:07.294Z,98771.46
2019-05-10T23:16:35.701Z,98761.83
2019-05-10T23:19:04.087Z,98759.69
2019-05-10T23:21:32.482Z,98770.23
2019-05-10T23:24:02.535Z,98761.48
2019-05-10T23:26:30.920Z,98761.92
2019-05-10T23:28:59.309Z,98754.92
2019-05-10T23:31:27.732Z,98753.19
2019-05-10T23:33:56.358Z,98740.88
2019-05-10T23:36:24.753Z,98748.78
2019-05-10T23:38:53.530Z,98745.73
2019-05-10T23:41:21.918Z,98750.55
2019-05-10T23:43:50.335Z,98744.84
2019-05-10T23:46:18.793Z,98736.53
2019-05-10T23:48:47.181Z,98737.02
2019-05-10T23:51:15.566Z,98732.25
2019-05-10T23:53:43.994Z,98730.98
2019-05-10T23:56:12.380Z,98722.73
2019-05-10T23:58:40.760Z,98717.51
